sensor_id;sensor_type;location;lat;lon;timestamp;pressure;altitude;pressure_sealevel;temperature;humidity
36502;BME280;25393;46.108;3.390;2022-11-12T00:01:08;99207.97;;;10.00;100.00
36502;BME280;25393;46.108;3.390;2022-11-12T00:03:35;99188.84;;;9.87;100.00
36502;BME280;25393;46.108;3.390;2022-11-12T00:06:01;99182.84;;;9.85;100.00
36502;BME280;25393;46.108;3.390;2022-11-12T00:08:29;99215.34;;;10.07;100.00
36502;BME280;25393;46.108;3.390;2022-11-12T00:10:56;99183.84;;;9.84;100.00
36502;BME280;25393;46.108;3.390;2022-11-12T00:13:22;99212.19;;;10.13;100.00
36502;BME280;25393;46.108;3.390;2022-11-12T00:15:49;99219.41;;;10.11;100.00
36502;BME280;25393;46.108;3.390;2022-11-12T00:18:16;99213.41;;;9.99;100.00
36502;BME280;25393;46.108;3.390;2022-11-12T00:20:43;99202.94;;;9.88;100.00
36502;BME280;25393;46.108;3.390;2022-11-12T00:23:09;99210.16;;;9.86;100.00
36502;BME280;25393;46.108;3.390;2022-11-12T00:25:36;99191.50;;;9.78;100.00
36502;BME280;25393;46.108;3.390;2022-11-12T00:28:06;99199.94;;;9.72;100.00
36502;BME280;25393;46.108;3.390;2022-11-12T00:30:35;99226.22;;;9.94;100.00
36502;BME280;25393;46.108;3.390;2022-11-12T00:33:08;99216.47;;;9.94;100.00
36502;BME280;25393;46.108;3.390;2022-11-12T00:35:38;99217.44;;;9.93;100.00
36502;BME280;25393;46.108;3.390;2022-11-12T00:38:08;99215.34;;;9.97;100.00
36502;BME280;25393;46.108;3.390;2022-11-12T00:40:34;99193.59;;;9.84;100.00
36502;BME280;25393;46.108;3.390;2022-11-12T00:43:04;99187.00;;;9.78;100.00
36502;BME280;25393;46.108;3.390;2022-11-12T00:45:33;99207.38;;;9.87;100.00
36502;BME280;25393;46.108;3.390;2022-11-12T00:47:59;99186.72;;;9.72;100.00
36502;BME280;25393;46.108;3.390;2022-11-12T00:50:26;99207.69;;;9.94;100.00
36502;BME280;25393;46.108;3.390;2022-11-12T00:52:53;99207.25;;;9.89;100.00
36502;BME280;25393;46.108;3.390;2022-11-12T00:55:19;99202.09;;;9.78;100.00
36502;BME280;25393;46.108;3.390;2022-11-12T00:57:46;99189.63;;;9.69;100.00
36502;BME280;25393;46.108;3.390;2022-11-12T01:00:15;99177.69;;;9.74;100.00
36502;BME280;25393;46.108;3.390;2022-11-12T01:02:42;99185.19;;;9.69;100.00
36502;BME280;25393;46.108;3.390;2022-11-12T01:05:16;99187.91;;;9.98;100.00
36502;BME280;25393;46.108;3.390;2022-11-12T01:07:42;99193.88;;;10.00;100.00
36502;BME280;25393;46.108;3.390;2022-11-12T01:10:10;99196.56;;;10.10;100.00
36502;BME280;25393;46.108;3.390;2022-11-12T01:12:40;99172.13;;;9.87;100.00
36502;BME280;25393;46.108;3.390;2022-11-12T01:15:10;99200.28;;;9.97;100.00
36502;BME280;25393;46.108;3.390;2022-11-12T01:17:40;99174.75;;;9.77;100.00
36502;BME280;25393;46.108;3.390;2022-11-12T01:20:11;99195.84;;;10.08;100.00
36502;BME280;25393;46.108;3.390;2022-11-12T01:22:40;99191.56;;;10.16;100.00
36502;BME280;25393;46.108;3.390;2022-11-12T01:25:10;99189.91;;;10.15;100.00
36502;BME280;25393;46.108;3.390;2022-11-12T01:27:36;99184.00;;;10.02;100.00
36502;BME280;25393;46.108;3.390;2022-11-12T01:30:06;99157.63;;;9.81;100.00
36502;BME280;25393;46.108;3.390;2022-11-12T01:32:36;99161.25;;;9.80;100.00
36502;BME280;25393;46.108;3.390;2022-11-12T01:35:04;99188.28;;;9.84;100.00
36502;BME280;25393;46.108;3.390;2022-11-12T01:37:30;99154.38;;;9.68;100.00
36502;BME280;25393;46.108;3.390;2022-11-12T01:39:57;99161.81;;;9.74;100.00
36502;BME280;25393;46.108;3.390;2022-11-12T01:42:29;99178.94;;;9.80;100.00
36502;BME280;25393;46.108;3.390;2022-11-12T01:44:56;99162.31;;;9.59;100.00
36502;BME280;25393;46.108;3.390;2022-11-12T01:47:31;99156.16;;;9.58;100.00
36502;BME280;25393;46.108;3.390;2022-11-12T01:52:57;99162.88;;;9.72;100.00
36502;BME280;25393;46.108;3.390;2022-11-12T01:55:28;99173.19;;;9.75;100.00
36502;BME280;25393;46.108;3.390;2022-11-12T01:58:04;99168.06;;;9.73;100.00
36502;BME280;25393;46.108;3.390;2022-11-12T02:00:34;99132.63;;;9.65;100.00
36502;BME280;25393;46.108;3.390;2022-11-12T02:03:02;99157.03;;;9.68;100.00
36502;BME280;25393;46.108;3.390;2022-11-12T02:05:31;99164.41;;;9.65;100.00
36502;BME280;25393;46.108;3.390;2022-11-12T02:07:59;99135.66;;;9.41;100.00
36502;BME280;25393;46.108;3.390;2022-11-12T02:10:26;99139.25;;;9.40;100.00
36502;BME280;25393;46.108;3.390;2022-11-12T02:12:53;99156.72;;;9.52;100.00
36502;BME280;25393;46.108;3.390;2022-11-12T02:15:39;99168.09;;;9.43;100.00
36502;BME280;25393;46.108;3.390;2022-11-12T02:18:07;99143.41;;;9.23;100.00
36502;BME280;25393;46.108;3.390;2022-11-12T02:20:35;99172.41;;;9.34;100.00
36502;BME280;25393;46.108;3.390;2022-11-12T02:23:04;99165.16;;;9.36;100.00
36502;BME280;25393;46.108;3.390;2022-11-12T02:25:31;99155.28;;;9.38;100.00
36502;BME280;25393;46.108;3.390;2022-11-12T02:27:58;99156.38;;;9.36;100.00
36502;BME280;25393;46.108;3.390;2022-11-12T02:30:43;99161.16;;;9.42;100.00
36502;BME280;25393;46.108;3.390;2022-11-12T02:33:10;99139.94;;;9.32;100.00
36502;BME280;25393;46.108;3.390;2022-11-12T02:35:53;99145.34;;;9.21;100.00
36502;BME280;25393;46.108;3.390;2022-11-12T02:38:20;99148.69;;;9.23;100.00
36502;BME280;25393;46.108;3.390;2022-11-12T02:40:46;99155.47;;;9.16;100.00
36502;BME280;25393;46.108;3.390;2022-11-12T02:43:13;99148.34;;;9.07;100.00
36502;BME280;25393;46.108;3.390;2022-11-12T02:45:40;99145.13;;;9.03;100.00
36502;BME280;25393;46.108;3.390;2022-11-12T02:48:09;99148.44;;;8.96;100.00
36502;BME280;25393;46.108;3.390;2022-11-12T02:50:46;99151.28;;;9.04;100.00
36502;BME280;25393;46.108;3.390;2022-11-12T02:53:15;99131.72;;;8.95;100.00
36502;BME280;25393;46.108;3.390;2022-11-12T02:55:45;99144.41;;;9.01;100.00
36502;BME280;25393;46.108;3.390;2022-11-12T02:58:12;99154.88;;;9.03;100.00
36502;BME280;25393;46.108;3.390;2022-11-12T03:00:46;99139.78;;;8.94;100.00
36502;BME280;25393;46.108;3.390;2022-11-12T03:03:16;99116.59;;;8.77;100.00
36502;BME280;25393;46.108;3.390;2022-11-12T03:05:55;99148.13;;;8.89;100.00
36502;BME280;25393;46.108;3.390;2022-11-12T03:08:23;99142.31;;;8.95;100.00
36502;BME280;25393;46.108;3.390;2022-11-12T03:10:50;99147.56;;;8.86;100.00
36502;BME280;25393;46.108;3.390;2022-11-12T03:13:18;99143.75;;;8.79;100.00
36502;BME280;25393;46.108;3.390;2022-11-12T03:15:47;99132.69;;;8.64;100.00
36502;BME280;25393;46.108;3.390;2022-11-12T03:18:17;99110.38;;;8.57;100.00
36502;BME280;25393;46.108;3.390;2022-11-12T03:20:44;99114.31;;;8.63;100.00
36502;BME280;25393;46.108;3.390;2022-11-12T03:23:17;99139.97;;;8.72;100.00
36502;BME280;25393;46.108;3.390;2022-11-12T03:25:43;99136.69;;;8.79;100.00
36502;BME280;25393;46.108;3.390;2022-11-12T03:28:14;99137.81;;;8.66;100.00
36502;BME280;25393;46.108;3.390;2022-11-12T03:30:46;99118.44;;;8.35;100.00
36502;BME280;25393;46.108;3.390;2022-11-12T03:33:13;99136.19;;;8.44;100.00
36502;BME280;25393;46.108;3.390;2022-11-12T03:35:43;99119.34;;;8.45;100.00
36502;BME280;25393;46.108;3.390;2022-11-12T03:38:12;99121.56;;;8.40;100.00
36502;BME280;25393;46.108;3.390;2022-11-12T03:40:39;99130.63;;;8.47;100.00
36502;BME280;25393;46.108;3.390;2022-11-12T03:43:05;99144.22;;;8.63;100.00
36502;BME280;25393;46.108;3.390;2022-11-12T03:45:32;99128.13;;;8.45;100.00
36502;BME280;25393;46.108;3.390;2022-11-12T03:47:58;99115.69;;;8.36;100.00
36502;BME280;25393;46.108;3.390;2022-11-12T03:50:28;99141.13;;;8.37;100.00
36502;BME280;25393;46.108;3.390;2022-11-12T03:52:57;99141.53;;;8.22;100.00
36502;BME280;25393;46.108;3.390;2022-11-12T03:55:26;99135.09;;;8.15;100.00
36502;BME280;25393;46.108;3.390;2022-11-12T03:57:53;99137.53;;;8.07;100.00
36502;BME280;25393;46.108;3.390;2022-11-12T04:00:22;99114.47;;;7.88;100.00
36502;BME280;25393;46.108;3.390;2022-11-12T04:02:49;99131.28;;;8.08;100.00
36502;BME280;25393;46.108;3.390;2022-11-12T04:05:19;99111.38;;;8.03;100.00
36502;BME280;25393;46.108;3.390;2022-11-12T04:08:14;99127.22;;;8.24;100.00
36502;BME280;25393;46.108;3.390;2022-11-12T04:11:00;99104.50;;;8.12;100.00
36502;BME280;25393;46.108;3.390;2022-11-12T04:13:26;99127.59;;;8.31;100.00
36502;BME280;25393;46.108;3.390;2022-11-12T04:18:42;99133.06;;;8.39;100.00
36502;BME280;25393;46.108;3.390;2022-11-12T04:21:31;99138.66;;;8.25;100.00
36502;BME280;25393;46.108;3.390;2022-11-12T04:24:22;99145.88;;;8.23;100.00
36502;BME280;25393;46.108;3.390;2022-11-12T04:27:09;99105.19;;;7.93;100.00
36502;BME280;25393;46.108;3.390;2022-11-12T04:29:36;99135.03;;;8.05;100.00
36502;BME280;25393;46.108;3.390;2022-11-12T04:32:22;99123.41;;;7.96;100.00
36502;BME280;25393;46.108;3.390;2022-11-12T04:34:51;99139.56;;;8.03;100.00
36502;BME280;25393;46.108;3.390;2022-11-12T04:37:24;99136.34;;;7.99;100.00
36502;BME280;25393;46.108;3.390;2022-11-12T04:39:51;99116.59;;;7.94;100.00
36502;BME280;25393;46.108;3.390;2022-11-12T04:42:21;99107.50;;;7.87;100.00
36502;BME280;25393;46.108;3.390;2022-11-12T04:45:09;99121.28;;;7.90;100.00
36502;BME280;25393;46.108;3.390;2022-11-12T04:47:38;99119.00;;;7.86;100.00
36502;BME280;25393;46.108;3.390;2022-11-12T04:50:16;99129.13;;;8.13;100.00
36502;BME280;25393;46.108;3.390;2022-11-12T04:52:43;99132.50;;;8.03;100.00
36502;BME280;25393;46.108;3.390;2022-11-12T04:55:10;99136.59;;;7.96;100.00
36502;BME280;25393;46.108;3.390;2022-11-12T04:57:37;99130.16;;;7.89;100.00
36502;BME280;25393;46.108;3.390;2022-11-12T05:00:04;99120.44;;;7.90;100.00
36502;BME280;25393;46.108;3.390;2022-11-12T05:02:31;99131.38;;;7.85;100.00
36502;BME280;25393;46.108;3.390;2022-11-12T05:04:57;99108.50;;;7.75;100.00
36502;BME280;25393;46.108;3.390;2022-11-12T05:07:24;99119.97;;;7.85;100.00
36502;BME280;25393;46.108;3.390;2022-11-12T05:09:53;99117.00;;;7.78;100.00
36502;BME280;25393;46.108;3.390;2022-11-12T05:12:23;99138.56;;;7.94;100.00
36502;BME280;25393;46.108;3.390;2022-11-12T05:14:50;99140.09;;;7.97;100.00
36502;BME280;25393;46.108;3.390;2022-11-12T05:17:17;99119.84;;;7.86;100.00
36502;BME280;25393;46.108;3.390;2022-11-12T05:19:44;99117.56;;;7.82;100.00
36502;BME280;25393;46.108;3.390;2022-11-12T05:22:10;99122.75;;;7.83;100.00
36502;BME280;25393;46.108;3.390;2022-11-12T05:24:57;99134.59;;;7.89;100.00
36502;BME280;25393;46.108;3.390;2022-11-12T05:27:24;99137.56;;;7.95;100.00
36502;BME280;25393;46.108;3.390;2022-11-12T05:29:53;99121.97;;;7.92;100.00
36502;BME280;25393;46.108;3.390;2022-11-12T05:32:20;99108.22;;;7.78;100.00
36502;BME280;25393;46.108;3.390;2022-11-12T05:34:48;99109.47;;;7.74;100.00
36502;BME280;25393;46.108;3.390;2022-11-12T05:37:15;99110.78;;;7.68;100.00
36502;BME280;25393;46.108;3.390;2022-11-12T05:39:42;99137.25;;;7.78;100.00
36502;BME280;25393;46.108;3.390;2022-11-12T05:42:08;99130.44;;;7.75;100.00
36502;BME280;25393;46.108;3.390;2022-11-12T05:44:40;99121.00;;;7.62;100.00
36502;BME280;25393;46.108;3.390;2022-11-12T05:47:06;99135.63;;;7.66;100.00
36502;BME280;25393;46.108;3.390;2022-11-12T05:49:36;99153.25;;;7.65;100.00
36502;BME280;25393;46.108;3.390;2022-11-12T05:52:02;99139.59;;;7.60;100.00
36502;BME280;25393;46.108;3.390;2022-11-12T05:54:29;99132.78;;;7.58;100.00
36502;BME280;25393;46.108;3.390;2022-11-12T05:56:55;99135.66;;;7.54;100.00
36502;BME280;25393;46.108;3.390;2022-11-12T05:59:22;99136.16;;;7.60;100.00
36502;BME280;25393;46.108;3.390;2022-11-12T06:01:49;99124.88;;;7.46;100.00
36502;BME280;25393;46.108;3.390;2022-11-12T06:04:16;99150.75;;;7.64;100.00
36502;BME280;25393;46.108;3.390;2022-11-12T06:06:43;99152.41;;;7.65;100.00
36502;BME280;25393;46.108;3.390;2022-11-12T06:09:12;99125.84;;;7.45;100.00
36502;BME280;25393;46.108;3.390;2022-11-12T06:11:39;99162.03;;;7.66;100.00
36502;BME280;25393;46.108;3.390;2022-11-12T06:14:05;99151.50;;;7.54;100.00
36502;BME280;25393;46.108;3.390;2022-11-12T06:16:32;99120.47;;;7.36;100.00
36502;BME280;25393;46.108;3.390;2022-11-12T06:18:59;99161.09;;;7.56;100.00
36502;BME280;25393;46.108;3.390;2022-11-12T06:21:25;99153.53;;;7.51;100.00
36502;BME280;25393;46.108;3.390;2022-11-12T06:23:58;99169.34;;;7.62;100.00
36502;BME280;25393;46.108;3.390;2022-11-12T06:26:27;99164.91;;;7.63;100.00
36502;BME280;25393;46.108;3.390;2022-11-12T06:28:55;99162.38;;;7.61;100.00
36502;BME280;25393;46.108;3.390;2022-11-12T06:31:24;99145.88;;;7.48;100.00
36502;BME280;25393;46.108;3.390;2022-11-12T06:33:55;99150.91;;;7.51;100.00
36502;BME280;25393;46.108;3.390;2022-11-12T06:36:24;99157.72;;;7.53;100.00
36502;BME280;25393;46.108;3.390;2022-11-12T06:38:51;99160.00;;;7.58;100.00
36502;BME280;25393;46.108;3.390;2022-11-12T06:41:19;99150.81;;;7.41;100.00
36502;BME280;25393;46.108;3.390;2022-11-12T06:43:45;99160.97;;;7.46;100.00
36502;BME280;25393;46.108;3.390;2022-11-12T06:46:14;99162.41;;;7.39;100.00
36502;BME280;25393;46.108;3.390;2022-11-12T06:48:41;99169.63;;;7.48;100.00
36502;BME280;25393;46.108;3.390;2022-11-12T06:51:16;99171.91;;;7.41;100.00
36502;BME280;25393;46.108;3.390;2022-11-12T06:53:43;99146.13;;;7.23;100.00
36502;BME280;25393;46.108;3.390;2022-11-12T06:56:11;99141.94;;;7.20;100.00
36502;BME280;25393;46.108;3.390;2022-11-12T06:58:38;99167.69;;;7.39;100.00
36502;BME280;25393;46.108;3.390;2022-11-12T07:01:13;99173.56;;;7.42;100.00
36502;BME280;25393;46.108;3.390;2022-11-12T07:03:41;99178.63;;;7.45;100.00
36502;BME280;25393;46.108;3.390;2022-11-12T07:06:13;99175.72;;;7.60;100.00
36502;BME280;25393;46.108;3.390;2022-11-12T07:08:40;99170.72;;;7.45;100.00
36502;BME280;25393;46.108;3.390;2022-11-12T07:11:07;99153.69;;;7.27;100.00
36502;BME280;25393;46.108;3.390;2022-11-12T07:13:35;99181.50;;;7.31;100.00
36502;BME280;25393;46.108;3.390;2022-11-12T07:16:03;99169.25;;;7.52;100.00
36502;BME280;25393;46.108;3.390;2022-11-12T07:18:31;99169.88;;;7.45;100.00
36502;BME280;25393;46.108;3.390;2022-11-12T07:21:12;99171.50;;;7.46;100.00
36502;BME280;25393;46.108;3.390;2022-11-12T07:23:39;99147.56;;;7.49;100.00
36502;BME280;25393;46.108;3.390;2022-11-12T07:26:19;99170.13;;;7.85;100.00
36502;BME280;25393;46.108;3.390;2022-11-12T07:28:48;99151.94;;;8.02;100.00
36502;BME280;25393;46.108;3.390;2022-11-12T07:31:17;99182.06;;;8.43;100.00
36502;BME280;25393;46.108;3.390;2022-11-12T07:33:44;99165.22;;;8.85;100.00
36502;BME280;25393;46.108;3.390;2022-11-12T07:36:14;99162.94;;;9.32;100.00
36502;BME280;25393;46.108;3.390;2022-11-12T07:38:42;99170.56;;;9.75;98.04
36502;BME280;25393;46.108;3.390;2022-11-12T07:41:11;99169.06;;;10.11;95.06
36502;BME280;25393;46.108;3.390;2022-11-12T07:43:39;99169.09;;;10.39;92.10
36502;BME280;25393;46.108;3.390;2022-11-12T07:46:26;99152.63;;;10.45;90.87
36502;BME280;25393;46.108;3.390;2022-11-12T07:48:55;99142.72;;;10.38;90.08
36502;BME280;25393;46.108;3.390;2022-11-12T07:51:25;99166.59;;;10.47;91.35
36502;BME280;25393;46.108;3.390;2022-11-12T07:53:56;99167.44;;;10.38;91.10
36502;BME280;25393;46.108;3.390;2022-11-12T07:56:26;99176.09;;;10.31;89.79
36502;BME280;25393;46.108;3.390;2022-11-12T07:58:56;99162.81;;;10.12;90.60
36502;BME280;25393;46.108;3.390;2022-11-12T08:03:56;99171.63;;;10.41;90.48
36502;BME280;25393;46.108;3.390;2022-11-12T08:06:27;99126.00;;;10.28;90.21
36502;BME280;25393;46.108;3.390;2022-11-12T08:08:55;99168.66;;;10.73;88.54
36502;BME280;25393;46.108;3.390;2022-11-12T08:11:25;99159.97;;;10.80;88.75
36502;BME280;25393;46.108;3.390;2022-11-12T08:13:55;99151.41;;;10.96;88.16
36502;BME280;25393;46.108;3.390;2022-11-12T08:16:22;99125.81;;;11.14;87.31
36502;BME280;25393;46.108;3.390;2022-11-12T08:18:55;99139.03;;;11.51;86.37
36502;BME280;25393;46.108;3.390;2022-11-12T08:21:24;99139.28;;;11.85;85.24
36502;BME280;25393;46.108;3.390;2022-11-12T08:23:50;99153.47;;;12.29;85.41
36502;BME280;25393;46.108;3.390;2022-11-12T08:26:20;99159.53;;;12.57;83.10
36502;BME280;25393;46.108;3.390;2022-11-12T08:28:49;99119.59;;;12.48;84.72
36502;BME280;25393;46.108;3.390;2022-11-12T08:31:19;99148.91;;;12.82;84.34
36502;BME280;25393;46.108;3.390;2022-11-12T08:33:46;99154.13;;;12.92;83.31
36502;BME280;25393;46.108;3.390;2022-11-12T08:36:14;99138.78;;;12.86;82.21
36502;BME280;25393;46.108;3.390;2022-11-12T08:38:41;99158.03;;;13.06;83.20
36502;BME280;25393;46.108;3.390;2022-11-12T08:41:10;99132.56;;;13.03;82.19
36502;BME280;25393;46.108;3.390;2022-11-12T08:43:39;99157.97;;;13.23;81.59
36502;BME280;25393;46.108;3.390;2022-11-12T08:46:06;99136.28;;;13.10;80.57
36502;BME280;25393;46.108;3.390;2022-11-12T08:48:32;99156.28;;;13.14;81.24
36502;BME280;25393;46.108;3.390;2022-11-12T08:51:01;99151.19;;;13.03;81.39
36502;BME280;25393;46.108;3.390;2022-11-12T08:53:28;99130.59;;;12.79;81.84
36502;BME280;25393;46.108;3.390;2022-11-12T08:55:57;99132.88;;;13.00;81.29
36502;BME280;25393;46.108;3.390;2022-11-12T08:58:24;99157.47;;;13.54;80.78
36502;BME280;25393;46.108;3.390;2022-11-12T09:00:54;99147.56;;;13.80;79.49
36502;BME280;25393;46.108;3.390;2022-11-12T09:03:24;99157.97;;;14.15;77.32
36502;BME280;25393;46.108;3.390;2022-11-12T09:05:51;99163.81;;;14.27;74.67
36502;BME280;25393;46.108;3.390;2022-11-12T09:08:28;99150.53;;;14.35;75.92
36502;BME280;25393;46.108;3.390;2022-11-12T09:10:56;99145.69;;;14.46;76.22
36502;BME280;25393;46.108;3.390;2022-11-12T09:13:24;99151.00;;;14.79;75.93
36502;BME280;25393;46.108;3.390;2022-11-12T09:15:51;99150.47;;;14.99;72.34
36502;BME280;25393;46.108;3.390;2022-11-12T09:18:20;99147.28;;;15.12;72.45
36502;BME280;25393;46.108;3.390;2022-11-12T09:20:48;99149.53;;;15.39;71.49
36502;BME280;25393;46.108;3.390;2022-11-12T09:23:16;99144.47;;;15.53;70.68
36502;BME280;25393;46.108;3.390;2022-11-12T09:25:43;99154.69;;;15.80;70.21
36502;BME280;25393;46.108;3.390;2022-11-12T09:28:13;99150.06;;;16.27;69.01
36502;BME280;25393;46.108;3.390;2022-11-12T09:30:43;99141.47;;;16.63;68.07
36502;BME280;25393;46.108;3.390;2022-11-12T09:33:13;99137.25;;;16.83;67.09
36502;BME280;25393;46.108;3.390;2022-11-12T09:35:41;99141.25;;;17.02;67.34
36502;BME280;25393;46.108;3.390;2022-11-12T09:38:08;99144.41;;;17.05;66.10
36502;BME280;25393;46.108;3.390;2022-11-12T09:43:26;99150.78;;;17.48;63.74
36502;BME280;25393;46.108;3.390;2022-11-12T09:45:56;99137.75;;;17.45;63.88
36502;BME280;25393;46.108;3.390;2022-11-12T09:48:50;99131.19;;;17.33;64.90
36502;BME280;25393;46.108;3.390;2022-11-12T09:51:31;99140.81;;;17.27;64.99
36502;BME280;25393;46.108;3.390;2022-11-12T09:54:04;99140.97;;;17.26;65.33
36502;BME280;25393;46.108;3.390;2022-11-12T09:56:33;99138.59;;;17.16;66.57
36502;BME280;25393;46.108;3.390;2022-11-12T09:58:59;99136.00;;;17.08;66.39
36502;BME280;25393;46.108;3.390;2022-11-12T10:09:19;99144.88;;;17.09;63.92
36502;BME280;25393;46.108;3.390;2022-11-12T10:18:13;99122.06;;;17.27;63.68
36502;BME280;25393;46.108;3.390;2022-11-12T10:20:54;99126.75;;;17.40;64.48
36502;BME280;25393;46.108;3.390;2022-11-12T10:23:25;99115.19;;;17.39;63.84
36502;BME280;25393;46.108;3.390;2022-11-12T10:25:57;99124.97;;;17.76;63.86
36502;BME280;25393;46.108;3.390;2022-11-12T10:28:34;99124.66;;;18.22;62.38
36502;BME280;25393;46.108;3.390;2022-11-12T10:31:11;99115.91;;;18.56;62.25
36502;BME280;25393;46.108;3.390;2022-11-12T10:33:38;99083.59;;;18.70;59.24
36502;BME280;25393;46.108;3.390;2022-11-12T10:36:39;99102.22;;;19.06;59.61
36502;BME280;25393;46.108;3.390;2022-11-12T10:39:04;99093.44;;;19.25;56.95
36502;BME280;25393;46.108;3.390;2022-11-12T10:41:32;99101.00;;;19.43;55.86
36502;BME280;25393;46.108;3.390;2022-11-12T10:44:01;99085.59;;;19.71;55.88
36502;BME280;25393;46.108;3.390;2022-11-12T10:46:36;99083.75;;;19.72;55.06
36502;BME280;25393;46.108;3.390;2022-11-12T10:49:25;99091.84;;;19.85;56.61
36502;BME280;25393;46.108;3.390;2022-11-12T10:51:56;99076.78;;;20.04;55.39
36502;BME280;25393;46.108;3.390;2022-11-12T10:54:29;99078.03;;;20.01;56.36
36502;BME280;25393;46.108;3.390;2022-11-12T10:57:26;99082.19;;;20.10;54.37
36502;BME280;25393;46.108;3.390;2022-11-12T11:02:51;99065.66;;;20.26;53.69
36502;BME280;25393;46.108;3.390;2022-11-12T11:05:47;99079.78;;;20.55;53.45
36502;BME280;25393;46.108;3.390;2022-11-12T11:08:31;99063.38;;;20.82;52.97
36502;BME280;25393;46.108;3.390;2022-11-12T11:11:22;99073.50;;;21.13;50.97
36502;BME280;25393;46.108;3.390;2022-11-12T11:16:51;99066.00;;;21.09;51.31
36502;BME280;25393;46.108;3.390;2022-11-12T11:19:31;99063.13;;;20.97;51.77
36502;BME280;25393;46.108;3.390;2022-11-12T11:22:25;99035.41;;;20.77;52.57
36502;BME280;25393;46.108;3.390;2022-11-12T11:25:48;99027.31;;;20.83;52.32
36502;BME280;25393;46.108;3.390;2022-11-12T11:31:01;99044.31;;;21.55;51.21
36502;BME280;25393;46.108;3.390;2022-11-12T11:33:47;99044.72;;;21.58;51.50
36502;BME280;25393;46.108;3.390;2022-11-12T11:45:14;99036.28;;;20.58;53.73
36502;BME280;25393;46.108;3.390;2022-11-12T11:48:00;99032.75;;;20.64;53.95
36502;BME280;25393;46.108;3.390;2022-11-12T11:50:34;99023.81;;;20.76;53.59
36502;BME280;25393;46.108;3.390;2022-11-12T11:56:25;99024.63;;;20.77;53.25
36502;BME280;25393;46.108;3.390;2022-11-12T11:59:19;99020.13;;;20.58;54.04
36502;BME280;25393;46.108;3.390;2022-11-12T12:09:45;98994.97;;;20.90;53.44
36502;BME280;25393;46.108;3.390;2022-11-12T12:15:50;98989.78;;;20.88;55.05
36502;BME280;25393;46.108;3.390;2022-11-12T12:21:17;98990.94;;;21.19;53.62
36502;BME280;25393;46.108;3.390;2022-11-12T12:26:45;98982.91;;;21.57;52.52
36502;BME280;25393;46.108;3.390;2022-11-12T12:29:23;98978.84;;;21.72;51.33
36502;BME280;25393;46.108;3.390;2022-11-12T12:32:02;98977.50;;;21.95;51.18
36502;BME280;25393;46.108;3.390;2022-11-12T12:34:38;98976.66;;;22.19;50.80
36502;BME280;25393;46.108;3.390;2022-11-12T12:37:20;98976.53;;;22.32;49.46
36502;BME280;25393;46.108;3.390;2022-11-12T12:47:51;98976.22;;;22.47;49.78
36502;BME280;25393;46.108;3.390;2022-11-12T12:50:26;98956.31;;;22.59;49.37
36502;BME280;25393;46.108;3.390;2022-11-12T12:53:03;98960.13;;;22.76;49.33
36502;BME280;25393;46.108;3.390;2022-11-12T12:55:42;98962.78;;;22.83;50.47
36502;BME280;25393;46.108;3.390;2022-11-12T12:58:47;98955.91;;;22.99;50.17
36502;BME280;25393;46.108;3.390;2022-11-12T13:04:04;98944.94;;;23.12;50.86
36502;BME280;25393;46.108;3.390;2022-11-12T13:06:37;98935.19;;;23.11;49.94
36502;BME280;25393;46.108;3.390;2022-11-12T13:11:49;98930.22;;;23.56;50.42
36502;BME280;25393;46.108;3.390;2022-11-12T13:17:08;98923.50;;;23.88;48.76
36502;BME280;25393;46.108;3.390;2022-11-12T13:48:51;98893.53;;;22.64;50.82
36502;BME280;25393;46.108;3.390;2022-11-12T13:51:36;98890.25;;;22.62;51.24
36502;BME280;25393;46.108;3.390;2022-11-12T13:56:52;98882.84;;;22.75;51.26
36502;BME280;25393;46.108;3.390;2022-11-12T13:59:21;98887.47;;;22.86;51.39
36502;BME280;25393;46.108;3.390;2022-11-12T14:01:48;98878.22;;;22.58;52.22
36502;BME280;25393;46.108;3.390;2022-11-12T14:04:17;98886.88;;;22.48;53.17
36502;BME280;25393;46.108;3.390;2022-11-12T14:07:10;98885.66;;;22.62;53.30
36502;BME280;25393;46.108;3.390;2022-11-12T14:12:41;98883.97;;;22.68;52.86
36502;BME280;25393;46.108;3.390;2022-11-12T14:15:24;98871.69;;;22.47;53.60
36502;BME280;25393;46.108;3.390;2022-11-12T14:21:14;98873.97;;;22.07;53.99
36502;BME280;25393;46.108;3.390;2022-11-12T14:23:45;98880.88;;;22.03;55.34
36502;BME280;25393;46.108;3.390;2022-11-12T14:26:14;98883.94;;;22.07;56.12
36502;BME280;25393;46.108;3.390;2022-11-12T14:28:58;98864.91;;;22.02;55.87
36502;BME280;25393;46.108;3.390;2022-11-12T14:31:25;98883.88;;;21.95;56.31
36502;BME280;25393;46.108;3.390;2022-11-12T14:33:53;98880.25;;;21.76;56.45
36502;BME280;25393;46.108;3.390;2022-11-12T14:36:21;98883.13;;;21.57;57.75
36502;BME280;25393;46.108;3.390;2022-11-12T14:38:54;98869.22;;;21.22;58.89
36502;BME280;25393;46.108;3.390;2022-11-12T14:41:37;98858.78;;;20.94;59.62
36502;BME280;25393;46.108;3.390;2022-11-12T14:44:16;98872.38;;;20.68;60.50
36502;BME280;25393;46.108;3.390;2022-11-12T14:46:49;98879.47;;;20.56;61.67
36502;BME280;25393;46.108;3.390;2022-11-12T14:49:22;98882.41;;;20.21;63.04
36502;BME280;25393;46.108;3.390;2022-11-12T14:52:02;98875.84;;;19.91;64.65
36502;BME280;25393;46.108;3.390;2022-11-12T14:54:37;98875.63;;;19.79;65.76
36502;BME280;25393;46.108;3.390;2022-11-12T14:57:10;98871.91;;;19.54;66.68
36502;BME280;25393;46.108;3.390;2022-11-12T14:59:42;98858.63;;;19.26;67.88
36502;BME280;25393;46.108;3.390;2022-11-12T15:02:15;98872.88;;;19.14;68.92
36502;BME280;25393;46.108;3.390;2022-11-12T15:05:17;98863.97;;;19.13;69.54
36502;BME280;25393;46.108;3.390;2022-11-12T15:07:55;98863.13;;;19.13;69.47
36502;BME280;25393;46.108;3.390;2022-11-12T15:10:40;98871.97;;;19.00;70.26
36502;BME280;25393;46.108;3.390;2022-11-12T15:13:08;98871.09;;;18.86;70.91
36502;BME280;25393;46.108;3.390;2022-11-12T15:18:25;98860.75;;;18.77;71.60
36502;BME280;25393;46.108;3.390;2022-11-12T15:21:25;98867.81;;;18.91;71.08
36502;BME280;25393;46.108;3.390;2022-11-12T15:24:03;98864.72;;;18.94;71.13